sensor_id;sensor_type;location;lat;lon;timestamp;P1;durP1;ratioP1;P2;durP2;ratioP2
72060;SDS011;59925;52.136;5.420;2022-10-16T00:02:17;3.30;;;0.80;;
72060;SDS011;59925;52.136;5.420;2022-10-16T00:04:44;3.65;;;0.95;;
72060;SDS011;59925;52.136;5.420;2022-10-16T00:07:10;2.88;;;1.23;;
72060;SDS011;59925;52.136;5.420;2022-10-16T00:09:37;5.13;;;1.10;;
72060;SDS011;59925;52.136;5.420;2022-10-16T00:12:03;3.30;;;0.85;;
72060;SDS011;59925;52.136;5.420;2022-10-16T00:14:30;4.60;;;0.90;;
72060;SDS011;59925;52.136;5.420;2022-10-16T00:16:56;5.32;;;1.00;;
72060;SDS011;59925;52.136;5.420;2022-10-16T00:19:23;4.38;;;1.23;;
72060;SDS011;59925;52.136;5.420;2022-10-16T00:21:49;2.73;;;1.00;;
72060;SDS011;59925;52.136;5.420;2022-10-16T00:24:15;6.97;;;1.02;;
72060;SDS011;59925;52.136;5.420;2022-10-16T00:26:42;3.92;;;1.13;;
72060;SDS011;59925;52.136;5.420;2022-10-16T00:29:09;3.45;;;1.10;;
72060;SDS011;59925;52.136;5.420;2022-10-16T00:31:35;3.20;;;0.95;;
72060;SDS011;59925;52.136;5.420;2022-10-16T00:34:02;3.50;;;1.30;;
72060;SDS011;59925;52.136;5.420;2022-10-16T00:36:28;6.10;;;1.20;;
72060;SDS011;59925;52.136;5.420;2022-10-16T00:38:55;2.25;;;0.90;;
72060;SDS011;59925;52.136;5.420;2022-10-16T00:41:26;4.75;;;1.20;;
72060;SDS011;59925;52.136;5.420;2022-10-16T00:43:54;2.67;;;1.08;;
72060;SDS011;59925;52.136;5.420;2022-10-16T00:46:37;4.00;;;1.30;;
72060;SDS011;59925;52.136;5.420;2022-10-16T00:49:12;4.35;;;1.23;;
72060;SDS011;59925;52.136;5.420;2022-10-16T00:51:51;4.75;;;1.40;;
72060;SDS011;59925;52.136;5.420;2022-10-16T00:54:23;5.97;;;1.40;;
72060;SDS011;59925;52.136;5.420;2022-10-16T00:56:52;2.28;;;1.25;;
72060;SDS011;59925;52.136;5.420;2022-10-16T00:59:27;4.07;;;1.57;;
72060;SDS011;59925;52.136;5.420;2022-10-16T01:01:54;6.78;;;1.77;;
72060;SDS011;59925;52.136;5.420;2022-10-16T01:04:21;2.92;;;1.65;;
72060;SDS011;59925;52.136;5.420;2022-10-16T01:09:47;7.47;;;2.00;;
72060;SDS011;59925;52.136;5.420;2022-10-16T01:14:54;5.28;;;2.00;;
72060;SDS011;59925;52.136;5.420;2022-10-16T01:28:54;6.00;;;2.20;;
72060;SDS011;59925;52.136;5.420;2022-10-16T01:31:24;5.18;;;2.33;;
72060;SDS011;59925;52.136;5.420;2022-10-16T01:33:59;5.82;;;2.45;;
72060;SDS011;59925;52.136;5.420;2022-10-16T01:36:31;5.82;;;2.42;;
72060;SDS011;59925;52.136;5.420;2022-10-16T01:39:03;5.93;;;2.33;;
72060;SDS011;59925;52.136;5.420;2022-10-16T01:41:33;5.15;;;2.70;;
72060;SDS011;59925;52.136;5.420;2022-10-16T01:44:05;6.65;;;2.30;;
72060;SDS011;59925;52.136;5.420;2022-10-16T01:46:36;3.35;;;2.08;;
72060;SDS011;59925;52.136;5.420;2022-10-16T01:49:05;5.60;;;2.40;;
72060;SDS011;59925;52.136;5.420;2022-10-16T01:51:32;5.83;;;2.40;;
72060;SDS011;59925;52.136;5.420;2022-10-16T01:54:00;4.40;;;2.47;;
72060;SDS011;59925;52.136;5.420;2022-10-16T01:56:28;4.05;;;2.38;;
72060;SDS011;59925;52.136;5.420;2022-10-16T01:58:57;7.70;;;2.60;;
72060;SDS011;59925;52.136;5.420;2022-10-16T02:01:27;4.85;;;2.00;;
72060;SDS011;59925;52.136;5.420;2022-10-16T02:03:58;6.67;;;1.97;;
72060;SDS011;59925;52.136;5.420;2022-10-16T02:06:34;5.53;;;2.30;;
72060;SDS011;59925;52.136;5.420;2022-10-16T02:09:01;3.67;;;1.77;;
72060;SDS011;59925;52.136;5.420;2022-10-16T02:11:28;5.57;;;2.20;;
72060;SDS011;59925;52.136;5.420;2022-10-16T02:13:55;5.43;;;1.90;;
72060;SDS011;59925;52.136;5.420;2022-10-16T02:16:34;3.27;;;1.67;;
72060;SDS011;59925;52.136;5.420;2022-10-16T02:19:06;3.75;;;1.63;;
72060;SDS011;59925;52.136;5.420;2022-10-16T02:24:51;6.18;;;1.60;;
72060;SDS011;59925;52.136;5.420;2022-10-16T02:27:25;2.75;;;1.42;;
72060;SDS011;59925;52.136;5.420;2022-10-16T02:30:04;6.50;;;2.20;;
72060;SDS011;59925;52.136;5.420;2022-10-16T02:32:34;2.33;;;1.45;;
72060;SDS011;59925;52.136;5.420;2022-10-16T02:35:05;2.85;;;1.52;;
72060;SDS011;59925;52.136;5.420;2022-10-16T02:37:33;5.60;;;1.90;;
72060;SDS011;59925;52.136;5.420;2022-10-16T02:40:01;3.67;;;1.55;;
72060;SDS011;59925;52.136;5.420;2022-10-16T02:42:29;6.97;;;2.37;;
72060;SDS011;59925;52.136;5.420;2022-10-16T02:44:59;3.15;;;1.55;;
72060;SDS011;59925;52.136;5.420;2022-10-16T02:47:25;4.25;;;1.52;;
72060;SDS011;59925;52.136;5.420;2022-10-16T02:49:52;4.30;;;1.50;;
72060;SDS011;59925;52.136;5.420;2022-10-16T02:52:18;4.00;;;1.55;;
72060;SDS011;59925;52.136;5.420;2022-10-16T02:54:45;4.23;;;1.60;;
72060;SDS011;59925;52.136;5.420;2022-10-16T02:57:11;4.28;;;1.73;;
72060;SDS011;59925;52.136;5.420;2022-10-16T02:59:38;4.32;;;1.65;;
72060;SDS011;59925;52.136;5.420;2022-10-16T03:02:04;4.53;;;1.67;;
72060;SDS011;59925;52.136;5.420;2022-10-16T03:04:31;3.80;;;1.27;;
72060;SDS011;59925;52.136;5.420;2022-10-16T03:06:57;5.60;;;1.73;;
72060;SDS011;59925;52.136;5.420;2022-10-16T03:09:24;3.75;;;1.83;;
72060;SDS011;59925;52.136;5.420;2022-10-16T03:11:50;3.78;;;1.63;;
72060;SDS011;59925;52.136;5.420;2022-10-16T03:14:16;3.50;;;1.60;;
72060;SDS011;59925;52.136;5.420;2022-10-16T03:16:43;2.55;;;1.40;;
72060;SDS011;59925;52.136;5.420;2022-10-16T03:19:09;4.33;;;1.50;;
72060;SDS011;59925;52.136;5.420;2022-10-16T03:21:36;7.78;;;1.80;;
72060;SDS011;59925;52.136;5.420;2022-10-16T03:24:02;4.72;;;1.83;;
72060;SDS011;59925;52.136;5.420;2022-10-16T03:26:29;2.95;;;1.70;;
72060;SDS011;59925;52.136;5.420;2022-10-16T03:28:55;3.42;;;1.70;;
72060;SDS011;59925;52.136;5.420;2022-10-16T03:31:21;4.27;;;1.50;;
72060;SDS011;59925;52.136;5.420;2022-10-16T03:33:48;2.55;;;1.58;;
72060;SDS011;59925;52.136;5.420;2022-10-16T03:36:14;3.85;;;1.80;;
72060;SDS011;59925;52.136;5.420;2022-10-16T03:38:41;2.97;;;1.30;;
72060;SDS011;59925;52.136;5.420;2022-10-16T03:41:07;2.70;;;1.20;;
72060;SDS011;59925;52.136;5.420;2022-10-16T03:43:34;3.90;;;1.30;;
72060;SDS011;59925;52.136;5.420;2022-10-16T03:46:00;4.65;;;1.58;;
72060;SDS011;59925;52.136;5.420;2022-10-16T03:48:27;3.67;;;1.88;;
72060;SDS011;59925;52.136;5.420;2022-10-16T03:50:53;4.20;;;1.67;;
72060;SDS011;59925;52.136;5.420;2022-10-16T03:53:20;4.40;;;2.00;;
72060;SDS011;59925;52.136;5.420;2022-10-16T03:55:47;3.20;;;1.50;;
72060;SDS011;59925;52.136;5.420;2022-10-16T03:58:13;4.90;;;2.03;;
72060;SDS011;59925;52.136;5.420;2022-10-16T04:00:43;5.35;;;1.63;;
72060;SDS011;59925;52.136;5.420;2022-10-16T04:03:11;4.35;;;1.90;;
72060;SDS011;59925;52.136;5.420;2022-10-16T04:05:38;3.75;;;1.67;;
72060;SDS011;59925;52.136;5.420;2022-10-16T04:08:05;4.07;;;1.80;;
72060;SDS011;59925;52.136;5.420;2022-10-16T04:10:31;2.92;;;1.48;;
72060;SDS011;59925;52.136;5.420;2022-10-16T04:12:58;2.83;;;1.23;;
72060;SDS011;59925;52.136;5.420;2022-10-16T04:15:24;4.20;;;1.95;;
72060;SDS011;59925;52.136;5.420;2022-10-16T04:17:51;3.75;;;1.40;;
72060;SDS011;59925;52.136;5.420;2022-10-16T04:20:18;2.80;;;1.13;;
72060;SDS011;59925;52.136;5.420;2022-10-16T04:22:47;2.22;;;1.13;;
72060;SDS011;59925;52.136;5.420;2022-10-16T04:25:14;2.30;;;1.38;;
72060;SDS011;59925;52.136;5.420;2022-10-16T04:27:40;4.93;;;1.20;;
72060;SDS011;59925;52.136;5.420;2022-10-16T04:30:11;3.05;;;1.45;;
72060;SDS011;59925;52.136;5.420;2022-10-16T04:32:37;4.73;;;1.10;;
72060;SDS011;59925;52.136;5.420;2022-10-16T04:35:04;3.53;;;1.38;;
72060;SDS011;59925;52.136;5.420;2022-10-16T04:37:31;3.13;;;1.17;;
72060;SDS011;59925;52.136;5.420;2022-10-16T04:39:57;4.05;;;1.10;;
72060;SDS011;59925;52.136;5.420;2022-10-16T04:42:24;3.00;;;1.15;;
72060;SDS011;59925;52.136;5.420;2022-10-16T04:44:51;6.03;;;1.60;;
72060;SDS011;59925;52.136;5.420;2022-10-16T04:47:17;2.80;;;1.17;;
72060;SDS011;59925;52.136;5.420;2022-10-16T04:49:43;3.20;;;1.17;;
72060;SDS011;59925;52.136;5.420;2022-10-16T04:52:10;3.03;;;1.00;;
72060;SDS011;59925;52.136;5.420;2022-10-16T04:54:36;2.78;;;1.00;;
72060;SDS011;59925;52.136;5.420;2022-10-16T04:57:03;2.97;;;0.73;;
72060;SDS011;59925;52.136;5.420;2022-10-16T04:59:30;3.55;;;0.90;;
72060;SDS011;59925;52.136;5.420;2022-10-16T05:01:57;1.67;;;0.90;;
72060;SDS011;59925;52.136;5.420;2022-10-16T05:04:23;3.42;;;1.00;;
72060;SDS011;59925;52.136;5.420;2022-10-16T05:06:49;5.05;;;1.10;;
72060;SDS011;59925;52.136;5.420;2022-10-16T05:09:16;3.33;;;1.20;;
72060;SDS011;59925;52.136;5.420;2022-10-16T05:11:42;1.67;;;1.00;;
72060;SDS011;59925;52.136;5.420;2022-10-16T05:14:08;4.65;;;1.15;;
72060;SDS011;59925;52.136;5.420;2022-10-16T05:16:36;1.65;;;0.80;;
72060;SDS011;59925;52.136;5.420;2022-10-16T05:19:02;4.28;;;0.90;;
72060;SDS011;59925;52.136;5.420;2022-10-16T05:21:48;2.90;;;0.90;;
72060;SDS011;59925;52.136;5.420;2022-10-16T05:24:15;2.15;;;0.80;;
72060;SDS011;59925;52.136;5.420;2022-10-16T05:26:41;2.00;;;1.00;;
72060;SDS011;59925;52.136;5.420;2022-10-16T05:29:08;4.15;;;0.90;;
72060;SDS011;59925;52.136;5.420;2022-10-16T05:31:35;3.38;;;0.95;;
72060;SDS011;59925;52.136;5.420;2022-10-16T05:34:02;2.37;;;1.00;;
72060;SDS011;59925;52.136;5.420;2022-10-16T05:36:28;3.65;;;0.60;;
72060;SDS011;59925;52.136;5.420;2022-10-16T05:38:55;1.70;;;0.90;;
72060;SDS011;59925;52.136;5.420;2022-10-16T05:41:21;3.08;;;1.10;;
72060;SDS011;59925;52.136;5.420;2022-10-16T05:43:49;1.42;;;0.88;;
72060;SDS011;59925;52.136;5.420;2022-10-16T05:46:16;2.53;;;0.90;;
72060;SDS011;59925;52.136;5.420;2022-10-16T05:48:42;4.15;;;0.90;;
72060;SDS011;59925;52.136;5.420;2022-10-16T05:51:10;4.82;;;1.10;;
72060;SDS011;59925;52.136;5.420;2022-10-16T05:53:38;3.45;;;1.17;;
72060;SDS011;59925;52.136;5.420;2022-10-16T05:56:06;3.33;;;1.20;;
72060;SDS011;59925;52.136;5.420;2022-10-16T05:58:35;2.10;;;0.93;;
72060;SDS011;59925;52.136;5.420;2022-10-16T06:01:03;2.08;;;1.05;;
72060;SDS011;59925;52.136;5.420;2022-10-16T06:03:33;2.85;;;1.10;;
72060;SDS011;59925;52.136;5.420;2022-10-16T06:06:07;2.90;;;1.10;;
72060;SDS011;59925;52.136;5.420;2022-10-16T06:08:37;2.78;;;0.85;;
72060;SDS011;59925;52.136;5.420;2022-10-16T06:11:05;4.30;;;1.00;;
72060;SDS011;59925;52.136;5.420;2022-10-16T06:13:33;1.60;;;0.93;;
72060;SDS011;59925;52.136;5.420;2022-10-16T06:15:59;2.85;;;0.98;;
72060;SDS011;59925;52.136;5.420;2022-10-16T06:18:27;4.07;;;1.20;;
72060;SDS011;59925;52.136;5.420;2022-10-16T06:20:54;3.03;;;1.17;;
72060;SDS011;59925;52.136;5.420;2022-10-16T06:23:21;6.20;;;1.07;;
72060;SDS011;59925;52.136;5.420;2022-10-16T06:25:49;3.08;;;1.30;;
72060;SDS011;59925;52.136;5.420;2022-10-16T06:28:15;1.98;;;1.00;;
72060;SDS011;59925;52.136;5.420;2022-10-16T06:30:42;3.25;;;1.25;;
72060;SDS011;59925;52.136;5.420;2022-10-16T06:33:12;1.88;;;1.00;;
72060;SDS011;59925;52.136;5.420;2022-10-16T06:35:39;3.13;;;1.10;;
72060;SDS011;59925;52.136;5.420;2022-10-16T06:38:05;2.13;;;0.80;;
72060;SDS011;59925;52.136;5.420;2022-10-16T06:40:31;5.00;;;1.33;;
72060;SDS011;59925;52.136;5.420;2022-10-16T06:42:58;2.35;;;1.08;;
72060;SDS011;59925;52.136;5.420;2022-10-16T06:45:24;4.55;;;1.33;;
72060;SDS011;59925;52.136;5.420;2022-10-16T06:47:50;2.33;;;1.23;;
72060;SDS011;59925;52.136;5.420;2022-10-16T06:50:17;2.63;;;1.08;;
72060;SDS011;59925;52.136;5.420;2022-10-16T06:52:43;3.72;;;1.50;;
72060;SDS011;59925;52.136;5.420;2022-10-16T06:55:09;3.10;;;1.08;;
72060;SDS011;59925;52.136;5.420;2022-10-16T06:57:36;3.65;;;1.00;;
72060;SDS011;59925;52.136;5.420;2022-10-16T07:00:02;3.37;;;1.10;;
72060;SDS011;59925;52.136;5.420;2022-10-16T07:02:29;3.33;;;1.33;;
72060;SDS011;59925;52.136;5.420;2022-10-16T07:04:56;2.42;;;1.67;;
72060;SDS011;59925;52.136;5.420;2022-10-16T07:07:22;3.90;;;1.33;;
72060;SDS011;59925;52.136;5.420;2022-10-16T07:09:50;2.80;;;0.98;;
72060;SDS011;59925;52.136;5.420;2022-10-16T07:12:17;3.23;;;1.03;;
72060;SDS011;59925;52.136;5.420;2022-10-16T07:14:43;6.40;;;1.08;;
72060;SDS011;59925;52.136;5.420;2022-10-16T07:17:10;5.13;;;1.20;;
72060;SDS011;59925;52.136;5.420;2022-10-16T07:19:36;2.75;;;1.00;;
72060;SDS011;59925;52.136;5.420;2022-10-16T07:22:03;3.08;;;1.13;;
72060;SDS011;59925;52.136;5.420;2022-10-16T07:24:29;2.47;;;0.97;;
72060;SDS011;59925;52.136;5.420;2022-10-16T07:26:55;2.33;;;1.00;;
72060;SDS011;59925;52.136;5.420;2022-10-16T07:29:22;4.78;;;1.08;;
72060;SDS011;59925;52.136;5.420;2022-10-16T07:31:48;3.75;;;0.80;;
72060;SDS011;59925;52.136;5.420;2022-10-16T07:34:16;4.00;;;0.90;;
72060;SDS011;59925;52.136;5.420;2022-10-16T07:36:43;4.90;;;1.07;;
72060;SDS011;59925;52.136;5.420;2022-10-16T07:39:10;3.60;;;0.77;;
72060;SDS011;59925;52.136;5.420;2022-10-16T07:41:36;2.53;;;0.75;;
72060;SDS011;59925;52.136;5.420;2022-10-16T07:44:03;2.92;;;0.80;;
72060;SDS011;59925;52.136;5.420;2022-10-16T07:46:30;2.22;;;0.80;;
72060;SDS011;59925;52.136;5.420;2022-10-16T07:48:57;3.10;;;0.90;;
72060;SDS011;59925;52.136;5.420;2022-10-16T07:51:24;4.18;;;0.80;;
72060;SDS011;59925;52.136;5.420;2022-10-16T07:53:51;4.35;;;0.75;;
72060;SDS011;59925;52.136;5.420;2022-10-16T07:56:19;6.18;;;0.88;;
72060;SDS011;59925;52.136;5.420;2022-10-16T07:58:47;3.50;;;0.90;;
72060;SDS011;59925;52.136;5.420;2022-10-16T08:01:16;4.97;;;1.07;;
72060;SDS011;59925;52.136;5.420;2022-10-16T08:03:44;3.40;;;0.98;;
72060;SDS011;59925;52.136;5.420;2022-10-16T08:06:11;3.60;;;0.90;;
72060;SDS011;59925;52.136;5.420;2022-10-16T08:08:37;7.32;;;1.80;;
72060;SDS011;59925;52.136;5.420;2022-10-16T08:11:03;3.63;;;1.52;;
72060;SDS011;59925;52.136;5.420;2022-10-16T08:13:30;3.60;;;1.17;;
72060;SDS011;59925;52.136;5.420;2022-10-16T08:15:57;6.78;;;1.23;;
72060;SDS011;59925;52.136;5.420;2022-10-16T08:18:24;2.78;;;1.25;;
72060;SDS011;59925;52.136;5.420;2022-10-16T08:20:57;3.63;;;1.15;;
72060;SDS011;59925;52.136;5.420;2022-10-16T08:23:24;3.85;;;1.15;;
72060;SDS011;59925;52.136;5.420;2022-10-16T08:25:52;3.87;;;0.87;;
72060;SDS011;59925;52.136;5.420;2022-10-16T08:28:19;2.25;;;0.80;;
72060;SDS011;59925;52.136;5.420;2022-10-16T08:30:46;3.92;;;0.90;;
72060;SDS011;59925;52.136;5.420;2022-10-16T08:33:13;2.78;;;1.00;;
72060;SDS011;59925;52.136;5.420;2022-10-16T08:35:39;4.07;;;1.00;;
72060;SDS011;59925;52.136;5.420;2022-10-16T08:38:06;2.03;;;1.00;;
72060;SDS011;59925;52.136;5.420;2022-10-16T08:40:33;3.80;;;1.00;;
72060;SDS011;59925;52.136;5.420;2022-10-16T08:48:35;4.35;;;1.10;;
72060;SDS011;59925;52.136;5.420;2022-10-16T08:51:35;8.63;;;1.10;;
72060;SDS011;59925;52.136;5.420;2022-10-16T08:57:07;4.70;;;1.00;;
72060;SDS011;59925;52.136;5.420;2022-10-16T08:59:37;5.22;;;0.95;;
72060;SDS011;59925;52.136;5.420;2022-10-16T09:02:08;5.97;;;1.02;;
72060;SDS011;59925;52.136;5.420;2022-10-16T09:07:39;4.97;;;0.80;;
72060;SDS011;59925;52.136;5.420;2022-10-16T09:16:12;4.88;;;0.80;;
72060;SDS011;59925;52.136;5.420;2022-10-16T09:18:59;5.43;;;0.60;;
72060;SDS011;59925;52.136;5.420;2022-10-16T09:21:31;6.65;;;0.85;;
72060;SDS011;59925;52.136;5.420;2022-10-16T09:24:20;6.70;;;0.95;;
72060;SDS011;59925;52.136;5.420;2022-10-16T09:26:54;4.75;;;1.23;;
72060;SDS011;59925;52.136;5.420;2022-10-16T09:29:21;4.18;;;0.70;;
72060;SDS011;59925;52.136;5.420;2022-10-16T09:31:47;8.03;;;1.37;;
72060;SDS011;59925;52.136;5.420;2022-10-16T09:34:36;4.93;;;0.88;;
72060;SDS011;59925;52.136;5.420;2022-10-16T09:37:11;4.50;;;0.93;;
72060;SDS011;59925;52.136;5.420;2022-10-16T09:39:43;4.15;;;0.88;;
72060;SDS011;59925;52.136;5.420;2022-10-16T09:42:50;3.55;;;0.90;;
72060;SDS011;59925;52.136;5.420;2022-10-16T09:45:19;4.93;;;1.10;;
72060;SDS011;59925;52.136;5.420;2022-10-16T09:47:49;4.95;;;0.70;;
72060;SDS011;59925;52.136;5.420;2022-10-16T09:50:23;3.95;;;0.85;;
72060;SDS011;59925;52.136;5.420;2022-10-16T09:53:05;6.82;;;0.80;;
72060;SDS011;59925;52.136;5.420;2022-10-16T09:55:48;5.15;;;0.75;;
72060;SDS011;59925;52.136;5.420;2022-10-16T09:58:16;8.27;;;0.93;;
72060;SDS011;59925;52.136;5.420;2022-10-16T10:00:48;6.40;;;1.17;;
72060;SDS011;59925;52.136;5.420;2022-10-16T10:06:23;8.52;;;1.48;;
72060;SDS011;59925;52.136;5.420;2022-10-16T10:11:43;3.77;;;0.70;;
72060;SDS011;59925;52.136;5.420;2022-10-16T10:27:25;5.60;;;0.73;;
72060;SDS011;59925;52.136;5.420;2022-10-16T10:35:30;3.20;;;0.70;;
72060;SDS011;59925;52.136;5.420;2022-10-16T10:38:16;9.80;;;1.00;;
72060;SDS011;59925;52.136;5.420;2022-10-16T10:40:51;9.02;;;0.95;;
72060;SDS011;59925;52.136;5.420;2022-10-16T10:43:32;5.90;;;0.95;;
72060;SDS011;59925;52.136;5.420;2022-10-16T10:46:04;6.43;;;1.00;;
72060;SDS011;59925;52.136;5.420;2022-10-16T10:52:01;5.50;;;0.70;;
72060;SDS011;59925;52.136;5.420;2022-10-16T10:54:26;4.20;;;0.80;;
72060;SDS011;59925;52.136;5.420;2022-10-16T10:57:04;5.82;;;1.00;;
72060;SDS011;59925;52.136;5.420;2022-10-16T11:10:54;5.88;;;0.85;;
72060;SDS011;59925;52.136;5.420;2022-10-16T11:18:52;8.97;;;1.20;;
72060;SDS011;59925;52.136;5.420;2022-10-16T11:21:25;5.90;;;0.90;;
72060;SDS011;59925;52.136;5.420;2022-10-16T11:24:13;5.10;;;1.15;;
72060;SDS011;59925;52.136;5.420;2022-10-16T11:26:42;7.80;;;1.08;;
72060;SDS011;59925;52.136;5.420;2022-10-16T11:29:17;5.22;;;1.00;;
72060;SDS011;59925;52.136;5.420;2022-10-16T11:31:50;4.17;;;0.73;;
72060;SDS011;59925;52.136;5.420;2022-10-16T11:37:14;5.82;;;1.10;;
72060;SDS011;59925;52.136;5.420;2022-10-16T11:39:46;6.72;;;0.80;;
72060;SDS011;59925;52.136;5.420;2022-10-16T11:42:16;5.50;;;0.70;;
72060;SDS011;59925;52.136;5.420;2022-10-16T11:44:52;7.47;;;1.20;;
72060;SDS011;59925;52.136;5.420;2022-10-16T11:55:44;5.18;;;0.70;;
72060;SDS011;59925;52.136;5.420;2022-10-16T11:58:22;6.27;;;0.97;;
72060;SDS011;59925;52.136;5.420;2022-10-16T12:03:45;5.72;;;0.85;;
72060;SDS011;59925;52.136;5.420;2022-10-16T12:06:33;5.45;;;0.60;;
72060;SDS011;59925;52.136;5.420;2022-10-16T12:09:05;4.07;;;0.63;;
72060;SDS011;59925;52.136;5.420;2022-10-16T12:11:47;6.57;;;0.93;;
72060;SDS011;59925;52.136;5.420;2022-10-16T12:16:53;3.15;;;0.60;;
72060;SDS011;59925;52.136;5.420;2022-10-16T12:19:26;6.90;;;0.98;;
72060;SDS011;59925;52.136;5.420;2022-10-16T12:21:58;4.90;;;0.60;;
72060;SDS011;59925;52.136;5.420;2022-10-16T12:24:37;7.07;;;0.90;;
72060;SDS011;59925;52.136;5.420;2022-10-16T12:27:06;7.32;;;1.13;;
72060;SDS011;59925;52.136;5.420;2022-10-16T12:29:49;4.10;;;0.50;;
72060;SDS011;59925;52.136;5.420;2022-10-16T12:32:33;5.47;;;0.75;;
72060;SDS011;59925;52.136;5.420;2022-10-16T12:35:18;7.63;;;0.85;;
72060;SDS011;59925;52.136;5.420;2022-10-16T12:37:51;4.83;;;0.87;;
72060;SDS011;59925;52.136;5.420;2022-10-16T12:40:28;6.05;;;0.77;;
72060;SDS011;59925;52.136;5.420;2022-10-16T12:42:57;7.30;;;0.95;;
72060;SDS011;59925;52.136;5.420;2022-10-16T12:47:57;4.60;;;0.88;;
72060;SDS011;59925;52.136;5.420;2022-10-16T12:50:35;6.03;;;1.60;;
72060;SDS011;59925;52.136;5.420;2022-10-16T12:53:16;2.50;;;0.50;;
72060;SDS011;59925;52.136;5.420;2022-10-16T12:55:52;4.60;;;0.75;;
72060;SDS011;59925;52.136;5.420;2022-10-16T13:09:40;4.45;;;0.52;;
72060;SDS011;59925;52.136;5.420;2022-10-16T13:28:48;9.45;;;1.17;;
72060;SDS011;59925;52.136;5.420;2022-10-16T13:31:17;6.40;;;1.00;;
72060;SDS011;59925;52.136;5.420;2022-10-16T13:33:51;6.75;;;0.90;;
72060;SDS011;59925;52.136;5.420;2022-10-16T13:38:49;15.40;;;1.45;;
72060;SDS011;59925;52.136;5.420;2022-10-16T13:41:26;5.45;;;0.60;;
72060;SDS011;59925;52.136;5.420;2022-10-16T13:43:52;7.63;;;0.80;;
72060;SDS011;59925;52.136;5.420;2022-10-16T13:46:23;6.22;;;1.00;;
72060;SDS011;59925;52.136;5.420;2022-10-16T13:48:58;5.88;;;0.68;;
72060;SDS011;59925;52.136;5.420;2022-10-16T13:51:25;2.92;;;0.60;;
72060;SDS011;59925;52.136;5.420;2022-10-16T13:53:52;6.90;;;0.80;;
72060;SDS011;59925;52.136;5.420;2022-10-16T13:56:22;9.33;;;0.73;;
72060;SDS011;59925;52.136;5.420;2022-10-16T13:59:00;4.50;;;0.70;;
72060;SDS011;59925;52.136;5.420;2022-10-16T14:01:50;7.15;;;0.80;;
72060;SDS011;59925;52.136;5.420;2022-10-16T14:04:17;5.00;;;0.93;;
72060;SDS011;59925;52.136;5.420;2022-10-16T14:06:44;7.57;;;0.60;;
72060;SDS011;59925;52.136;5.420;2022-10-16T14:11:51;6.70;;;0.60;;
72060;SDS011;59925;52.136;5.420;2022-10-16T14:14:24;6.07;;;0.80;;
72060;SDS011;59925;52.136;5.420;2022-10-16T14:16:52;6.95;;;1.00;;
72060;SDS011;59925;52.136;5.420;2022-10-16T14:21:51;4.73;;;0.63;;
72060;SDS011;59925;52.136;5.420;2022-10-16T14:24:31;4.97;;;0.75;;
72060;SDS011;59925;52.136;5.420;2022-10-16T14:26:59;6.35;;;0.80;;
72060;SDS011;59925;52.136;5.420;2022-10-16T14:29:27;5.93;;;0.75;;
72060;SDS011;59925;52.136;5.420;2022-10-16T14:32:01;5.97;;;1.08;;
72060;SDS011;59925;52.136;5.420;2022-10-16T14:34:30;7.30;;;0.97;;
72060;SDS011;59925;52.136;5.420;2022-10-16T14:37:18;5.10;;;0.90;;
72060;SDS011;59925;52.136;5.420;2022-10-16T14:39:53;7.05;;;0.90;;
72060;SDS011;59925;52.136;5.420;2022-10-16T14:42:21;6.53;;;0.85;;
72060;SDS011;59925;52.136;5.420;2022-10-16T14:44:51;5.82;;;0.88;;
72060;SDS011;59925;52.136;5.420;2022-10-16T14:47:20;5.77;;;1.00;;
72060;SDS011;59925;52.136;5.420;2022-10-16T14:49:53;8.23;;;2.63;;
72060;SDS011;59925;52.136;5.420;2022-10-16T14:52:21;4.53;;;0.88;;
72060;SDS011;59925;52.136;5.420;2022-10-16T14:54:48;7.05;;;1.20;;
72060;SDS011;59925;52.136;5.420;2022-10-16T14:57:18;5.80;;;0.80;;
72060;SDS011;59925;52.136;5.420;2022-10-16T14:59:48;6.23;;;0.60;;
72060;SDS011;59925;52.136;5.420;2022-10-16T15:04:57;4.68;;;0.50;;
72060;SDS011;59925;52.136;5.420;2022-10-16T15:07:30;6.93;;;1.20;;
72060;SDS011;59925;52.136;5.420;2022-10-16T15:09:56;10.48;;;0.80;;
72060;SDS011;59925;52.136;5.420;2022-10-16T15:12:24;8.23;;;0.93;;
72060;SDS011;59925;52.136;5.420;2022-10-16T15:14:50;5.88;;;0.60;;
72060;SDS011;59925;52.136;5.420;2022-10-16T15:17:17;10.70;;;1.38;;
72060;SDS011;59925;52.136;5.420;2022-10-16T15:19:47;6.13;;;0.70;;
72060;SDS011;59925;52.136;5.420;2022-10-16T15:22:13;5.28;;;0.60;;
72060;SDS011;59925;52.136;5.420;2022-10-16T15:24:40;4.93;;;0.63;;
72060;SDS011;59925;52.136;5.420;2022-10-16T15:27:06;9.45;;;0.80;;
72060;SDS011;59925;52.136;5.420;2022-10-16T15:29:32;5.32;;;0.85;;
72060;SDS011;59925;52.136;5.420;2022-10-16T15:31:59;5.25;;;0.82;;
72060;SDS011;59925;52.136;5.420;2022-10-16T15:34:25;8.18;;;0.98;;
72060;SDS011;59925;52.136;5.420;2022-10-16T15:36:51;6.73;;;1.13;;
72060;SDS011;59925;52.136;5.420;2022-10-16T15:39:18;6.75;;;1.00;;
72060;SDS011;59925;52.136;5.420;2022-10-16T15:41:46;7.82;;;0.85;;
72060;SDS011;59925;52.136;5.420;2022-10-16T15:44:20;7.40;;;1.13;;
72060;SDS011;59925;52.136;5.420;2022-10-16T15:46:49;8.75;;;1.40;;
72060;SDS011;59925;52.136;5.420;2022-10-16T15:49:15;8.03;;;1.43;;
72060;SDS011;59925;52.136;5.420;2022-10-16T15:51:42;6.00;;;1.10;;
72060;SDS011;59925;52.136;5.420;2022-10-16T15:54:08;11.68;;;1.58;;
72060;SDS011;59925;52.136;5.420;2022-10-16T15:56:35;13.32;;;2.22;;
72060;SDS011;59925;52.136;5.420;2022-10-16T15:59:02;7.68;;;1.13;;
72060;SDS011;59925;52.136;5.420;2022-10-16T16:01:33;5.27;;;1.03;;
72060;SDS011;59925;52.136;5.420;2022-10-16T16:04:01;10.05;;;1.60;;
72060;SDS011;59925;52.136;5.420;2022-10-16T16:06:40;6.78;;;1.15;;
72060;SDS011;59925;52.136;5.420;2022-10-16T16:09:11;4.57;;;1.20;;
72060;SDS011;59925;52.136;5.420;2022-10-16T16:11:38;11.63;;;1.95;;
72060;SDS011;59925;52.136;5.420;2022-10-16T16:14:12;7.43;;;1.47;;
72060;SDS011;59925;52.136;5.420;2022-10-16T16:16:39;8.13;;;1.67;;
72060;SDS011;59925;52.136;5.420;2022-10-16T16:19:05;7.53;;;2.05;;
72060;SDS011;59925;52.136;5.420;2022-10-16T16:21:36;5.72;;;1.30;;
72060;SDS011;59925;52.136;5.420;2022-10-16T16:24:03;6.20;;;2.22;;
72060;SDS011;59925;52.136;5.420;2022-10-16T16:26:34;7.80;;;2.10;;
72060;SDS011;59925;52.136;5.420;2022-10-16T16:29:03;6.57;;;1.92;;
72060;SDS011;59925;52.136;5.420;2022-10-16T16:31:30;12.05;;;2.17;;
72060;SDS011;59925;52.136;5.420;2022-10-16T16:33:58;7.95;;;2.38;;
72060;SDS011;59925;52.136;5.420;2022-10-16T16:36:24;8.77;;;2.78;;
72060;SDS011;59925;52.136;5.420;2022-10-16T16:38:51;11.70;;;2.70;;
72060;SDS011;59925;52.136;5.420;2022-10-16T16:41:22;13.50;;;3.20;;
72060;SDS011;59925;52.136;5.420;2022-10-16T16:43:51;9.25;;;3.15;;
72060;SDS011;59925;52.136;5.420;2022-10-16T16:46:18;11.07;;;3.38;;
72060;SDS011;59925;52.136;5.420;2022-10-16T16:48:45;7.88;;;2.65;;
72060;SDS011;59925;52.136;5.420;2022-10-16T16:51:12;9.50;;;2.53;;
72060;SDS011;59925;52.136;5.420;2022-10-16T16:53:48;9.40;;;3.53;;
72060;SDS011;59925;52.136;5.420;2022-10-16T16:56:17;8.68;;;3.28;;
72060;SDS011;59925;52.136;5.420;2022-10-16T16:58:45;6.97;;;2.88;;
72060;SDS011;59925;52.136;5.420;2022-10-16T17:01:16;9.02;;;3.30;;
72060;SDS011;59925;52.136;5.420;2022-10-16T17:03:46;7.83;;;3.13;;
72060;SDS011;59925;52.136;5.420;2022-10-16T17:06:16;7.63;;;3.20;;
72060;SDS011;59925;52.136;5.420;2022-10-16T17:08:46;8.75;;;2.90;;
72060;SDS011;59925;52.136;5.420;2022-10-16T17:11:16;10.55;;;3.33;;
72060;SDS011;59925;52.136;5.420;2022-10-16T17:13:51;13.02;;;4.70;;
72060;SDS011;59925;52.136;5.420;2022-10-16T17:16:23;16.23;;;4.63;;
72060;SDS011;59925;52.136;5.420;2022-10-16T17:18:51;12.38;;;4.18;;
72060;SDS011;59925;52.136;5.420;2022-10-16T17:21:19;11.18;;;4.80;;
72060;SDS011;59925;52.136;5.420;2022-10-16T17:23:45;10.35;;;4.95;;